createdAt,value
2024-04-19T00:00:14.001Z,7.82
2024-04-19T00:03:16.692Z,7.76
2024-04-19T00:06:19.626Z,7.71
2024-04-19T00:09:22.244Z,7.77
2024-04-19T00:12:24.785Z,7.79
2024-04-19T00:15:27.278Z,7.72
2024-04-19T00:18:30.129Z,7.69
2024-04-19T00:21:32.860Z,7.43
2024-04-19T00:24:35.481Z,7.60
2024-04-19T00:27:38.144Z,7.71
2024-04-19T00:30:44.141Z,7.73
2024-04-19T00:33:46.969Z,7.43
2024-04-19T00:36:49.611Z,7.40
2024-04-19T00:39:52.256Z,7.72
2024-04-19T00:42:57.364Z,7.45
2024-04-19T00:45:59.868Z,7.60
2024-04-19T00:49:02.394Z,7.64
2024-04-19T00:52:07.583Z,7.60
2024-04-19T00:55:10.228Z,7.84
2024-04-19T00:58:14.332Z,7.57
2024-04-19T01:01:18.699Z,7.54
2024-04-19T01:04:22.380Z,7.60
2024-04-19T01:07:25.277Z,7.76
2024-04-19T01:10:27.814Z,7.68
2024-04-19T01:13:30.366Z,7.90
2024-04-19T01:16:32.874Z,7.66
2024-04-19T01:19:35.330Z,7.60
2024-04-19T01:22:38.522Z,7.59
2024-04-19T01:25:42.802Z,7.47
2024-04-19T01:28:46.328Z,7.43
2024-04-19T01:31:48.848Z,7.54
2024-04-19T01:34:51.358Z,7.69
2024-04-19T01:37:53.841Z,7.81
2024-04-19T01:40:56.368Z,7.85
2024-04-19T01:43:59.911Z,7.83
2024-04-19T01:47:02.591Z,7.80
2024-04-19T01:50:06.155Z,7.62
2024-04-19T01:53:08.635Z,7.54
2024-04-19T01:56:11.193Z,7.38
2024-04-19T01:59:16.647Z,7.58
2024-04-19T02:02:19.247Z,7.54
2024-04-19T02:05:21.748Z,7.53
2024-04-19T02:08:24.260Z,7.76
2024-04-19T02:11:26.918Z,7.75
2024-04-19T02:14:31.500Z,7.62
2024-04-19T02:17:34.242Z,7.62
2024-04-19T02:20:36.895Z,7.47
2024-04-19T02:23:39.566Z,7.54
2024-04-19T02:26:42.449Z,-144.04
2024-04-19T02:30:03.838Z,-144.04
2024-04-19T02:33:06.422Z,-144.04
2024-04-19T02:36:11.002Z,-144.04
2024-04-19T02:39:13.596Z,-144.04
2024-04-19T02:42:16.102Z,-144.04
2024-04-19T02:45:27.694Z,-144.04
2024-04-19T02:48:30.456Z,-144.04
2024-04-19T02:51:33.147Z,-144.04
2024-04-19T02:54:35.703Z,-144.04
2024-04-19T02:57:38.246Z,-144.04
2024-04-19T03:00:40.911Z,-144.04
2024-04-19T03:03:43.650Z,-144.04
2024-04-19T03:06:46.414Z,-144.04
2024-04-19T03:09:49.018Z,-144.04
2024-04-19T03:12:51.798Z,-144.04
2024-04-19T03:16:03.880Z,-144.04
2024-04-19T03:19:18.393Z,-144.04
2024-04-19T03:22:20.942Z,-144.04
2024-04-19T03:25:23.577Z,-144.04
2024-04-19T03:28:26.091Z,-144.04
2024-04-19T03:31:28.597Z,-144.04
2024-04-19T03:34:31.244Z,-144.04
2024-04-19T03:37:33.748Z,-144.04
2024-04-19T03:40:36.313Z,-144.04
2024-04-19T03:43:43.033Z,-144.04
2024-04-19T03:46:45.567Z,-144.04
2024-04-19T03:49:48.196Z,-144.04
2024-04-19T03:52:50.720Z,-144.04
2024-04-19T03:55:53.561Z,-144.04
2024-04-19T03:58:56.170Z,-144.04
2024-04-19T04:01:58.726Z,-144.04
2024-04-19T04:05:01.306Z,-144.04
2024-04-19T04:08:04.098Z,-144.04
2024-04-19T04:11:10.709Z,-144.04
2024-04-19T04:14:13.216Z,-144.04
2024-04-19T04:17:15.774Z,-144.04
2024-04-19T04:20:18.453Z,-144.04
2024-04-19T04:23:20.974Z,-144.04
2024-04-19T04:26:23.487Z,-144.04
2024-04-19T04:29:28.631Z,-144.04
2024-04-19T04:32:31.178Z,-144.04
2024-04-19T04:35:35.860Z,-144.04
2024-04-19T04:38:38.381Z,-144.04
2024-04-19T04:41:41.444Z,-144.04
2024-04-19T04:44:43.988Z,-144.04
2024-04-19T04:47:46.626Z,-144.04
2024-04-19T04:50:49.189Z,-144.04
2024-04-19T04:53:51.732Z,-144.04
2024-04-19T04:56:54.260Z,-144.04
2024-04-19T04:59:56.787Z,-144.04
2024-04-19T05:03:00.986Z,-144.04
2024-04-19T05:06:03.861Z,-144.04
2024-04-19T05:09:06.359Z,-144.04
2024-04-19T05:12:09.765Z,-144.04
2024-04-19T05:15:12.292Z,-144.04
2024-04-19T05:18:17.859Z,-144.04
2024-04-19T05:21:20.457Z,-144.04
2024-04-19T05:24:22.998Z,-144.04
2024-04-19T05:27:25.553Z,-144.04
2024-04-19T05:30:29.274Z,-144.04
2024-04-19T05:33:31.986Z,-144.04
2024-04-19T05:36:34.499Z,-144.04
2024-04-19T05:39:37.163Z,-144.04
2024-04-19T05:42:39.761Z,-144.04
2024-04-19T05:45:43.737Z,-144.04
2024-04-19T05:48:46.383Z,-144.04
2024-04-19T05:51:48.972Z,-144.04
2024-04-19T05:54:51.611Z,-144.04
2024-04-19T05:57:54.525Z,-144.04
2024-04-19T06:00:57.167Z,-144.04
2024-04-19T06:04:00.098Z,-144.04
2024-04-19T06:07:02.822Z,-144.04
2024-04-19T06:10:06.721Z,-144.04
2024-04-19T06:13:09.309Z,-144.04
2024-04-19T06:16:12.144Z,-144.04
2024-04-19T06:19:14.681Z,-144.04
2024-04-19T06:22:17.463Z,-144.04
2024-04-19T06:25:19.989Z,10.81
2024-04-19T06:28:22.944Z,10.81
2024-04-19T06:31:25.564Z,-144.04
2024-04-19T06:34:29.295Z,10.81
2024-04-19T06:37:31.811Z,9.72
2024-04-19T06:40:34.405Z,-144.04
2024-04-19T06:43:36.952Z,9.60
2024-04-19T06:46:39.479Z,9.60
2024-04-19T06:49:42.101Z,9.81
2024-04-19T06:52:44.665Z,9.11
2024-04-19T06:55:49.374Z,8.99
2024-04-19T06:58:51.946Z,9.00
2024-04-19T07:01:55.058Z,8.94
2024-04-19T07:04:57.722Z,9.27
2024-04-19T07:08:00.348Z,11.49
2024-04-19T07:11:03.961Z,11.47
2024-04-19T07:14:06.564Z,11.40
2024-04-19T07:17:09.162Z,11.30
2024-04-19T07:20:11.862Z,11.66
2024-04-19T07:23:15.911Z,11.38
2024-04-19T07:26:18.677Z,12.09
2024-04-19T07:29:23.673Z,11.63
2024-04-19T07:32:26.266Z,11.47
2024-04-19T07:35:28.967Z,10.91
2024-04-19T07:38:31.546Z,13.51
2024-04-19T07:41:37.052Z,16.60
2024-04-19T07:44:40.307Z,18.33
2024-04-19T07:47:42.986Z,18.55
2024-04-19T07:50:47.082Z,19.81
2024-04-19T07:53:49.708Z,19.62
2024-04-19T07:56:53.030Z,20.27
2024-04-19T07:59:55.643Z,20.26
2024-04-19T08:02:58.914Z,20.87
2024-04-19T08:06:01.457Z,19.86
2024-04-19T08:09:04.053Z,20.44
2024-04-19T08:12:08.048Z,20.14
2024-04-19T08:15:10.562Z,20.27
2024-04-19T08:18:13.139Z,21.08
2024-04-19T08:21:15.642Z,20.88
2024-04-19T08:24:18.226Z,19.94
2024-04-19T08:27:21.434Z,19.84
2024-04-19T08:30:24.507Z,15.29
2024-04-19T08:33:27.104Z,14.25
2024-04-19T08:36:29.643Z,13.38
2024-04-19T08:39:32.209Z,17.73
2024-04-19T08:42:34.783Z,19.80
2024-04-19T08:45:37.498Z,18.63
2024-04-19T08:48:44.342Z,18.97
2024-04-19T08:52:00.735Z,18.32
2024-04-19T08:55:10.348Z,16.29
2024-04-19T08:58:14.588Z,19.58
2024-04-19T09:01:17.214Z,20.00
2024-04-19T09:04:19.831Z,17.07
2024-04-19T09:07:22.539Z,16.87
2024-04-19T09:10:26.071Z,19.29
2024-04-19T09:13:28.603Z,21.36
2024-04-19T09:16:33.777Z,23.13
2024-04-19T09:19:36.677Z,23.15
2024-04-19T09:22:39.242Z,22.82
2024-04-19T09:25:42.405Z,22.16
2024-04-19T09:28:45.081Z,23.48
2024-04-19T09:31:47.719Z,23.27
2024-04-19T09:34:51.485Z,22.99
2024-04-19T09:37:55.047Z,22.18
2024-04-19T09:41:01.003Z,22.59
2024-04-19T09:44:06.029Z,22.75
2024-04-19T09:47:10.588Z,22.99
2024-04-19T09:50:15.856Z,22.44
2024-04-19T09:53:26.315Z,22.04
2024-04-19T09:56:47.176Z,20.44
2024-04-19T09:59:50.562Z,21.68
2024-04-19T10:02:53.955Z,21.81
2024-04-19T10:05:56.909Z,19.87
2024-04-19T10:08:59.939Z,16.96
2024-04-19T10:12:03.744Z,15.63
2024-04-19T10:15:10.893Z,14.21
2024-04-19T10:18:13.715Z,14.08
2024-04-19T10:21:16.413Z,13.03
2024-04-19T10:24:23.731Z,13.07
2024-04-19T10:27:30.616Z,12.77
2024-04-19T10:30:36.835Z,12.02
2024-04-19T10:33:39.966Z,11.88
2024-04-19T10:36:42.560Z,13.17
2024-04-19T10:39:48.154Z,17.62
2024-04-19T10:43:01.661Z,18.65
2024-04-19T10:46:04.572Z,19.09
2024-04-19T10:49:07.183Z,19.30
2024-04-19T10:56:59.821Z,21.73
2024-04-19T11:00:02.359Z,22.90
2024-04-19T11:03:14.331Z,22.65
2024-04-19T11:06:20.851Z,19.15
2024-04-19T11:09:24.466Z,19.37
2024-04-19T11:12:27.871Z,21.64
2024-04-19T11:15:36.896Z,22.65
2024-04-19T11:18:46.886Z,22.92
2024-04-19T11:21:50.285Z,20.90
2024-04-19T11:24:56.093Z,21.48
2024-04-19T11:27:59.268Z,22.31
2024-04-19T11:31:10.272Z,22.16
2024-04-19T11:34:15.015Z,22.68
2024-04-19T11:37:18.206Z,24.00
2024-04-19T11:40:25.223Z,24.44
2024-04-19T11:43:28.050Z,24.93
2024-04-19T11:46:31.268Z,25.25
2024-04-19T11:49:33.986Z,23.71
2024-04-19T11:52:38.852Z,22.62
2024-04-19T11:55:42.421Z,20.90
2024-04-19T11:58:45.510Z,20.69
2024-04-19T12:01:48.783Z,19.78
2024-04-19T12:04:51.568Z,21.84
2024-04-19T12:07:54.740Z,22.40
2024-04-19T12:10:57.579Z,22.53
2024-04-19T12:14:50.724Z,19.40
2024-04-19T12:17:27.122Z,18.20
2024-04-19T12:20:46.411Z,17.22
2024-04-19T12:23:54.777Z,20.14
2024-04-19T12:27:00.373Z,19.13
2024-04-19T12:30:03.299Z,19.06
2024-04-19T12:33:06.079Z,18.92
2024-04-19T12:36:08.797Z,17.99
2024-04-19T12:39:11.331Z,18.17
2024-04-19T12:42:13.944Z,18.24
2024-04-19T12:45:16.899Z,19.84
2024-04-19T12:48:21.030Z,18.91
2024-04-19T12:51:25.280Z,18.08
2024-04-19T12:54:28.070Z,18.06
2024-04-19T12:57:30.686Z,17.82
2024-04-19T13:00:33.348Z,17.31
2024-04-19T13:03:36.126Z,18.17
2024-04-19T13:06:38.903Z,18.38
2024-04-19T13:09:41.637Z,17.91
2024-04-19T13:12:44.155Z,18.98
2024-04-19T13:15:46.766Z,19.02
2024-04-19T13:18:49.882Z,19.31
2024-04-19T13:21:52.689Z,19.25
2024-04-19T13:24:55.333Z,17.94
2024-04-19T13:27:58.056Z,16.85
2024-04-19T13:31:00.783Z,16.92
2024-04-19T13:34:03.411Z,18.24
2024-04-19T13:37:10.688Z,17.81
2024-04-19T13:40:13.899Z,18.46
2024-04-19T13:43:17.109Z,18.42
2024-04-19T13:46:19.837Z,18.20
2024-04-19T13:49:22.460Z,18.33
2024-04-19T13:52:24.990Z,16.84
2024-04-19T13:55:27.509Z,16.64
2024-04-19T13:58:31.240Z,16.19
2024-04-19T14:01:34.000Z,16.84
2024-04-19T14:04:37.105Z,17.33
2024-04-19T14:07:39.716Z,17.64
2024-04-19T14:10:44.586Z,17.25
2024-04-19T14:13:47.102Z,17.98
2024-04-19T14:16:50.475Z,18.43
2024-04-19T14:19:55.269Z,17.93
2024-04-19T14:22:57.764Z,16.50
2024-04-19T14:26:01.434Z,17.97
2024-04-19T14:29:04.044Z,16.89
2024-04-19T14:32:06.805Z,16.86
2024-04-19T14:35:09.658Z,16.96
2024-04-19T14:38:12.274Z,17.25
2024-04-19T14:41:14.804Z,15.57
2024-04-19T14:44:17.879Z,16.13
2024-04-19T14:47:21.897Z,16.04
2024-04-19T14:50:24.546Z,16.51
2024-04-19T14:53:27.482Z,15.29
2024-04-19T14:56:30.109Z,13.88
2024-04-19T14:59:32.681Z,14.10
2024-04-19T15:02:35.271Z,14.40
2024-04-19T15:05:39.965Z,14.27
2024-04-19T15:08:42.482Z,14.12
2024-04-19T15:11:45.059Z,13.89
2024-04-19T15:14:47.653Z,13.76
2024-04-19T15:17:51.982Z,13.57
2024-04-19T15:20:54.523Z,13.31
2024-04-19T15:23:57.026Z,13.32
2024-04-19T15:26:59.591Z,13.61
2024-04-19T15:30:02.251Z,13.60
2024-04-19T15:33:05.323Z,13.43
2024-04-19T15:36:08.062Z,13.41
2024-04-19T15:39:10.615Z,13.32
2024-04-19T15:42:14.341Z,13.21
2024-04-19T15:45:17.381Z,13.10
2024-04-19T15:48:20.082Z,13.19
2024-04-19T15:51:22.732Z,12.99
2024-04-19T15:54:25.488Z,12.81
2024-04-19T15:57:28.438Z,12.52
2024-04-19T16:00:31.202Z,12.39
2024-04-19T16:03:34.926Z,12.41
2024-04-19T16:06:37.603Z,12.42
2024-04-19T16:09:40.713Z,12.24
2024-04-19T16:12:43.418Z,12.32
2024-04-19T16:15:46.080Z,12.35
2024-04-19T16:18:49.949Z,12.23
2024-04-19T16:21:52.575Z,11.83
2024-04-19T16:24:56.030Z,11.78
2024-04-19T16:27:58.706Z,12.12
2024-04-19T16:31:01.638Z,12.22
2024-04-19T16:34:04.646Z,12.23
2024-04-19T16:37:07.270Z,11.82
2024-04-19T16:40:10.283Z,11.99
2024-04-19T16:43:13.430Z,11.80
2024-04-19T16:46:15.938Z,11.86
2024-04-19T16:49:18.470Z,11.52
2024-04-19T16:52:21.757Z,11.39
2024-04-19T16:55:24.881Z,11.45
2024-04-19T16:58:27.568Z,11.15
2024-04-19T17:01:30.182Z,11.07
2024-04-19T17:04:33.248Z,11.05
2024-04-19T17:07:35.861Z,10.93
2024-04-19T17:10:38.591Z,10.93
2024-04-19T17:13:41.444Z,10.83
2024-04-19T17:16:45.111Z,10.54
2024-04-19T17:19:47.901Z,10.71
2024-04-19T17:22:50.443Z,10.39
2024-04-19T17:25:53.046Z,10.47
2024-04-19T17:28:57.015Z,10.50
2024-04-19T17:31:59.518Z,10.39
2024-04-19T17:35:03.078Z,10.28
2024-04-19T17:38:05.635Z,10.26
2024-04-19T17:41:08.551Z,10.20
2024-04-19T17:44:11.007Z,10.10
2024-04-19T17:47:13.637Z,9.98
2024-04-19T17:50:16.255Z,9.88
2024-04-19T17:53:18.726Z,9.75
2024-04-19T17:56:21.193Z,9.76
2024-04-19T17:59:24.024Z,9.31
2024-04-19T18:02:26.554Z,9.42
2024-04-19T18:05:30.966Z,9.17
2024-04-19T18:08:33.490Z,9.16
2024-04-19T18:11:36.543Z,9.06
2024-04-19T18:14:39.041Z,9.03
2024-04-19T18:17:41.567Z,8.96
2024-04-19T18:20:46.983Z,9.12
2024-04-19T18:23:49.812Z,8.97
2024-04-19T18:26:52.657Z,8.70
2024-04-19T18:29:59.949Z,8.69
2024-04-19T18:33:05.054Z,8.61
2024-04-19T18:36:07.843Z,8.44
2024-04-19T18:39:11.555Z,8.46
2024-04-19T18:42:14.056Z,8.38
2024-04-19T18:45:16.990Z,8.32
2024-04-19T18:48:19.547Z,8.27
2024-04-19T18:51:22.438Z,8.19
2024-04-19T18:54:25.140Z,8.20
2024-04-19T18:57:47.866Z,8.43
2024-04-19T19:01:16.593Z,8.04
2024-04-19T19:04:40.977Z,8.11
2024-04-19T19:08:03.389Z,8.20
2024-04-19T19:11:28.069Z,8.05
2024-04-19T19:14:33.214Z,7.98
2024-04-19T19:17:37.558Z,7.91
2024-04-19T19:20:40.047Z,7.90
2024-04-19T19:23:42.980Z,7.89
2024-04-19T19:26:46.131Z,7.83
2024-04-19T19:29:48.939Z,7.86
2024-04-19T19:32:51.738Z,7.68
2024-04-19T19:35:56.151Z,7.59
2024-04-19T19:38:58.638Z,7.62
2024-04-19T19:42:02.453Z,7.63
2024-04-19T19:45:05.355Z,7.63
2024-04-19T19:48:08.101Z,7.40
2024-04-19T19:51:11.160Z,7.45
2024-04-19T19:54:13.937Z,7.62
2024-04-19T19:57:16.570Z,7.64
2024-04-19T20:00:38.129Z,7.56
2024-04-19T20:03:59.218Z,7.70
2024-04-19T20:07:03.156Z,7.82
2024-04-19T20:10:05.989Z,7.83
2024-04-19T20:13:10.116Z,7.89
2024-04-19T20:16:16.515Z,7.89
2024-04-19T20:19:19.088Z,7.99
2024-04-19T20:22:22.718Z,7.81
2024-04-19T20:25:28.020Z,7.73
2024-04-19T20:28:30.523Z,7.53
2024-04-19T20:31:33.073Z,7.58
2024-04-19T20:34:35.555Z,7.64
2024-04-19T20:37:38.034Z,7.75
2024-04-19T20:40:40.595Z,7.71
2024-04-19T20:43:43.126Z,7.63
2024-04-19T20:46:45.600Z,7.46
2024-04-19T20:49:48.180Z,7.50
2024-04-19T20:52:51.765Z,7.52
2024-04-19T20:55:54.968Z,7.41
2024-04-19T20:58:57.838Z,7.22
2024-04-19T21:02:00.548Z,6.99
2024-04-19T21:05:04.498Z,7.06
2024-04-19T21:08:07.283Z,7.02
2024-04-19T21:11:10.049Z,6.77
2024-04-19T21:14:12.559Z,6.75
2024-04-19T21:17:15.357Z,6.54
2024-04-19T21:20:18.051Z,6.60
2024-04-19T21:23:20.542Z,6.62
2024-04-19T21:26:23.688Z,6.53
2024-04-19T21:29:26.197Z,6.36
2024-04-19T21:32:30.407Z,6.35
2024-04-19T21:35:33.203Z,6.32
2024-04-19T21:38:35.761Z,6.16
2024-04-19T21:41:38.299Z,6.08
2024-04-19T21:44:40.782Z,6.15
2024-04-19T21:47:45.612Z,6.23
2024-04-19T21:50:48.131Z,6.31
2024-04-19T21:53:51.405Z,6.37
2024-04-19T21:56:53.933Z,6.33
2024-04-19T21:59:56.375Z,6.28
2024-04-19T22:02:58.824Z,6.36
2024-04-19T22:06:02.340Z,6.39
2024-04-19T22:09:04.840Z,6.45
2024-04-19T22:12:07.610Z,6.47
2024-04-19T22:15:10.518Z,6.38
2024-04-19T22:18:13.085Z,6.37
2024-04-19T22:21:16.586Z,6.26
2024-04-19T22:24:19.246Z,6.26
2024-04-19T22:27:21.760Z,6.06
2024-04-19T22:30:24.441Z,6.29
2024-04-19T22:33:28.260Z,6.34
2024-04-19T22:36:30.860Z,6.18
2024-04-19T22:39:34.194Z,6.21
2024-04-19T22:42:36.759Z,6.15
2024-04-19T22:45:42.099Z,6.10
2024-04-19T22:48:44.735Z,6.09
2024-04-19T22:51:47.295Z,6.09
2024-04-19T22:54:49.890Z,6.19
2024-04-19T22:57:52.511Z,6.15
2024-04-19T23:01:01.140Z,6.20
2024-04-19T23:04:04.489Z,6.26
2024-04-19T23:07:07.182Z,6.23
2024-04-19T23:10:09.894Z,6.13
2024-04-19T23:13:12.406Z,6.17
2024-04-19T23:16:15.089Z,6.18
2024-04-19T23:19:17.597Z,6.18
2024-04-19T23:22:20.318Z,6.18
2024-04-19T23:25:23.303Z,6.23
2024-04-19T23:28:25.828Z,6.32
2024-04-19T23:31:28.348Z,6.35
2024-04-19T23:34:30.827Z,6.41
2024-04-19T23:37:33.806Z,6.49
2024-04-19T23:40:36.331Z,6.59
2024-04-19T23:43:38.861Z,6.52
2024-04-19T23:46:41.365Z,6.57
2024-04-19T23:49:43.905Z,6.65
2024-04-19T23:52:46.790Z,6.57
2024-04-19T23:55:49.286Z,6.59
2024-04-19T23:58:51.772Z,6.50
